createdAt,value
2019-03-23T00:01:57.690Z,12.73
2019-03-23T00:05:53.190Z,12.70
2019-03-23T00:07:53.150Z,12.69
2019-03-23T00:11:53.164Z,12.69
2019-03-23T00:13:53.163Z,12.67
2019-03-23T00:17:53.173Z,12.66
2019-03-23T00:19:53.160Z,12.64
2019-03-23T00:23:53.155Z,12.64
2019-03-23T00:25:53.178Z,12.62
2019-03-23T00:31:53.173Z,12.59
2019-03-23T00:33:55.353Z,12.60
2019-03-23T00:37:53.178Z,12.57
2019-03-23T00:39:53.182Z,12.57
2019-03-23T00:43:59.980Z,12.57
2019-03-23T00:45:53.209Z,12.54
2019-03-23T00:49:56.840Z,12.53
2019-03-23T00:51:53.211Z,12.51
2019-03-23T00:55:53.180Z,12.50
2019-03-23T00:57:53.212Z,12.48
2019-03-23T01:01:53.207Z,12.47
2019-03-23T01:03:53.195Z,12.46
2019-03-23T01:07:53.192Z,12.43
2019-03-23T01:09:57.824Z,12.44
2019-03-23T01:13:53.232Z,12.42
2019-03-23T01:15:53.208Z,12.41
2019-03-23T01:19:53.221Z,12.38
2019-03-23T01:21:53.225Z,12.36
2019-03-23T01:25:53.248Z,12.34
2019-03-23T01:27:53.200Z,12.32
2019-03-23T01:31:53.231Z,12.31
2019-03-23T01:33:53.230Z,12.31
2019-03-23T01:37:53.239Z,12.28
2019-03-23T01:39:58.260Z,12.27
2019-03-23T01:43:53.232Z,12.25
2019-03-23T01:45:53.240Z,12.23
2019-03-23T01:49:53.245Z,12.20
2019-03-23T01:51:53.236Z,12.18
2019-03-23T01:55:53.248Z,12.18
2019-03-23T01:57:53.239Z,12.15
2019-03-23T02:01:53.247Z,12.13
2019-03-23T02:03:53.232Z,12.12
2019-03-23T02:07:53.272Z,12.10
2019-03-23T02:09:53.260Z,12.10
2019-03-23T02:13:53.266Z,12.06
2019-03-23T02:15:53.254Z,12.05
2019-03-23T02:19:53.261Z,12.04
2019-03-23T02:21:53.272Z,12.02
2019-03-23T02:25:53.280Z,11.97
2019-03-23T02:27:53.282Z,11.97
2019-03-23T02:31:53.295Z,11.97
2019-03-23T02:33:53.297Z,11.96
2019-03-23T02:37:53.278Z,11.93
2019-03-23T02:39:53.295Z,11.91
2019-03-23T02:43:53.285Z,11.89
2019-03-23T02:45:53.291Z,11.89
2019-03-23T02:49:53.327Z,11.86
2019-03-23T02:51:53.308Z,11.85
2019-03-23T02:55:53.306Z,11.81
2019-03-23T02:57:53.287Z,11.81
2019-03-23T03:01:53.315Z,11.75
2019-03-23T03:03:53.297Z,11.77
2019-03-23T03:07:53.320Z,11.76
2019-03-23T03:09:53.305Z,11.73
2019-03-23T03:14:01.135Z,11.72
2019-03-23T03:15:53.328Z,11.71
2019-03-23T03:19:53.320Z,11.70
2019-03-23T03:21:53.422Z,11.66
2019-03-23T03:27:53.327Z,11.63
2019-03-23T03:31:58.357Z,11.61
2019-03-23T03:33:53.318Z,11.62
2019-03-23T03:37:56.898Z,11.60
2019-03-23T03:39:53.350Z,11.58
2019-03-23T03:43:53.356Z,11.56
2019-03-23T03:45:53.336Z,11.54
2019-03-23T03:49:53.340Z,11.51
2019-03-23T03:51:53.339Z,11.53
2019-03-23T03:55:53.385Z,11.48
2019-03-23T03:57:53.368Z,11.49
2019-03-23T04:01:53.349Z,11.47
2019-03-23T04:03:53.366Z,11.45
2019-03-23T04:07:53.382Z,11.44
2019-03-23T04:09:53.384Z,11.41
2019-03-23T04:13:53.386Z,11.39
2019-03-23T04:15:53.373Z,11.38
2019-03-23T04:19:53.360Z,11.37
2019-03-23T04:21:53.383Z,11.35
2019-03-23T04:25:53.392Z,11.36
2019-03-23T04:27:53.386Z,11.34
2019-03-23T04:31:53.403Z,11.32
2019-03-23T04:33:53.393Z,11.32
2019-03-23T04:37:53.391Z,11.30
2019-03-23T04:39:53.377Z,11.30
2019-03-23T04:43:53.374Z,11.30
2019-03-23T04:45:53.403Z,11.28
2019-03-23T04:49:53.387Z,11.26
2019-03-23T04:51:53.384Z,11.26
2019-03-23T04:55:53.404Z,11.23
2019-03-23T04:57:53.418Z,11.23
2019-03-23T05:01:53.405Z,11.20
2019-03-23T05:03:53.432Z,11.22
2019-03-23T05:07:53.393Z,11.19
2019-03-23T05:09:58.051Z,11.19
2019-03-23T05:13:53.426Z,11.18
2019-03-23T05:15:53.426Z,11.17
2019-03-23T05:19:58.156Z,11.17
2019-03-23T05:21:53.424Z,11.17
2019-03-23T05:25:53.426Z,11.14
2019-03-23T05:27:53.713Z,11.14
2019-03-23T05:31:53.448Z,11.12
2019-03-23T05:33:53.448Z,11.10
2019-03-23T05:37:53.445Z,11.08
2019-03-23T05:39:53.448Z,11.08
2019-03-23T05:43:53.448Z,11.08
2019-03-23T05:45:53.450Z,11.08
2019-03-23T05:50:02.380Z,11.06
2019-03-23T05:51:53.478Z,11.07
2019-03-23T05:55:53.445Z,11.04
2019-03-23T05:57:53.469Z,11.04
2019-03-23T06:01:53.452Z,11.03
2019-03-23T06:03:53.476Z,11.04
2019-03-23T06:07:53.505Z,11.03
2019-03-23T06:09:53.476Z,11.00
2019-03-23T06:13:53.482Z,11.00
2019-03-23T06:15:53.507Z,10.99
2019-03-23T06:19:53.481Z,10.98
2019-03-23T06:21:53.492Z,10.99
2019-03-23T06:25:58.056Z,10.98
2019-03-23T06:27:53.485Z,10.98
2019-03-23T06:31:53.480Z,10.96
2019-03-23T06:33:53.481Z,10.97
2019-03-23T06:37:53.486Z,10.96
2019-03-23T06:39:59.679Z,10.95
2019-03-23T06:45:53.502Z,10.95
2019-03-23T06:47:53.496Z,10.94
2019-03-23T06:51:53.514Z,10.94
2019-03-23T06:53:53.573Z,10.95
2019-03-23T06:57:53.656Z,10.92
2019-03-23T06:59:53.526Z,10.94
2019-03-23T07:03:54.636Z,10.92
2019-03-23T07:05:53.522Z,10.90
2019-03-23T07:09:53.522Z,10.88
2019-03-23T07:11:53.535Z,10.89
2019-03-23T07:15:54.479Z,10.89
2019-03-23T07:17:53.512Z,10.90
2019-03-23T07:21:53.531Z,10.89
2019-03-23T07:23:53.533Z,10.87
2019-03-23T07:27:53.531Z,10.88
2019-03-23T07:29:58.503Z,10.89
2019-03-23T07:33:57.841Z,10.86
2019-03-23T07:35:57.879Z,10.86
2019-03-23T07:39:53.548Z,10.88
2019-03-23T07:41:53.540Z,10.88
2019-03-23T07:45:53.552Z,10.88
2019-03-23T07:47:53.553Z,10.88
2019-03-23T07:51:53.617Z,10.89
2019-03-23T07:53:53.564Z,10.87
2019-03-23T07:57:53.602Z,10.88
2019-03-23T07:59:53.620Z,10.87
2019-03-23T08:03:53.668Z,10.88
2019-03-23T08:05:53.612Z,10.89
2019-03-23T08:09:54.387Z,10.87
2019-03-23T08:11:58.280Z,10.88
2019-03-23T08:15:53.670Z,10.86
2019-03-23T08:17:53.618Z,10.86
2019-03-23T08:21:53.643Z,10.87
2019-03-23T08:23:53.658Z,10.88
2019-03-23T08:27:53.633Z,10.87
2019-03-23T08:30:01.574Z,10.88
2019-03-23T08:33:53.674Z,10.87
2019-03-23T08:35:53.650Z,10.87
2019-03-23T08:39:53.669Z,10.87
2019-03-23T08:41:53.667Z,10.88
2019-03-23T08:45:53.663Z,10.87
2019-03-23T08:47:53.713Z,10.88
2019-03-23T08:51:53.676Z,10.88
2019-03-23T08:53:53.656Z,10.89
2019-03-23T08:57:53.667Z,10.88
2019-03-23T08:59:53.690Z,10.88
2019-03-23T09:03:53.689Z,10.88
2019-03-23T09:05:53.679Z,10.90
2019-03-23T09:09:59.198Z,10.90
2019-03-23T09:11:53.709Z,10.89
2019-03-23T09:15:53.702Z,10.91
2019-03-23T09:17:53.758Z,10.91
2019-03-23T09:21:53.703Z,10.91
2019-03-23T09:23:53.696Z,10.90
2019-03-23T09:27:53.743Z,10.91
2019-03-23T09:29:53.702Z,10.92
2019-03-23T09:33:58.654Z,10.92
2019-03-23T09:35:53.707Z,10.93
2019-03-23T09:39:53.708Z,10.93
2019-03-23T09:41:53.898Z,10.94
2019-03-23T09:45:53.717Z,10.94
2019-03-23T09:47:53.701Z,10.94
2019-03-23T09:51:53.735Z,10.96
2019-03-23T09:53:53.710Z,10.95
2019-03-23T09:57:54.088Z,10.95
2019-03-23T09:59:53.718Z,10.97
2019-03-23T10:03:53.739Z,10.97
2019-03-23T10:05:53.713Z,10.97
2019-03-23T10:13:53.725Z,10.98
2019-03-23T10:15:53.739Z,10.98
2019-03-23T10:19:53.722Z,10.99
2019-03-23T10:25:59.925Z,11.00
2019-03-23T10:27:53.735Z,11.00
2019-03-23T10:31:55.664Z,11.00
2019-03-23T10:33:53.854Z,11.01
2019-03-23T10:37:53.742Z,11.01
2019-03-23T10:40:01.195Z,11.02
2019-03-23T10:43:53.743Z,11.03
2019-03-23T10:45:53.774Z,11.03
2019-03-23T10:50:02.947Z,11.03
2019-03-23T10:51:53.889Z,11.02
2019-03-23T10:57:53.796Z,11.04
2019-03-23T11:01:56.401Z,11.06
2019-03-23T11:03:53.764Z,11.05
2019-03-23T11:07:53.751Z,11.06
2019-03-23T11:09:53.798Z,11.07
2019-03-23T11:13:53.811Z,11.08
2019-03-23T11:15:53.784Z,11.08
2019-03-23T11:19:53.777Z,11.08
2019-03-23T11:21:53.801Z,11.08
2019-03-23T11:25:53.782Z,11.10
2019-03-23T11:27:53.916Z,11.11
2019-03-23T11:31:53.810Z,11.12
2019-03-23T11:33:53.812Z,11.12
2019-03-23T11:37:54.014Z,11.14
2019-03-23T11:39:54.074Z,11.13
2019-03-23T11:43:53.804Z,11.16
2019-03-23T11:45:53.820Z,11.16
2019-03-23T11:49:53.823Z,11.17
2019-03-23T11:51:59.759Z,11.16
2019-03-23T11:55:53.829Z,11.16
2019-03-23T11:57:53.845Z,11.17
2019-03-23T12:01:53.831Z,11.19
2019-03-23T12:03:53.853Z,11.20
2019-03-23T12:07:53.851Z,11.20
2019-03-23T12:09:55.963Z,11.20
2019-03-23T12:13:53.853Z,11.21
2019-03-23T12:15:53.826Z,11.22
2019-03-23T12:20:02.924Z,11.24
2019-03-23T12:21:58.293Z,11.23
2019-03-23T12:25:53.854Z,11.24
2019-03-23T12:27:53.847Z,11.26
2019-03-23T12:31:53.836Z,11.26
2019-03-23T12:33:53.856Z,11.27
2019-03-23T12:37:53.859Z,11.29
2019-03-23T12:39:53.874Z,11.28
2019-03-23T12:43:53.837Z,11.29
2019-03-23T12:45:53.861Z,11.30
2019-03-23T12:49:53.890Z,11.32
2019-03-23T12:51:53.902Z,11.31
2019-03-23T12:55:58.417Z,11.33
2019-03-23T12:57:53.892Z,11.34
2019-03-23T13:01:53.905Z,11.35
2019-03-23T13:04:00.081Z,11.35
2019-03-23T13:07:57.530Z,11.36
2019-03-23T13:09:53.909Z,11.37
2019-03-23T13:13:53.891Z,11.37
2019-03-23T13:15:57.502Z,11.38
2019-03-23T13:19:53.918Z,11.40
2019-03-23T13:21:53.906Z,11.41
2019-03-23T13:25:53.898Z,11.43
2019-03-23T13:27:55.738Z,11.43
2019-03-23T13:31:57.644Z,11.45
2019-03-23T13:33:53.929Z,11.46
2019-03-23T13:37:54.654Z,11.48
2019-03-23T13:39:53.942Z,11.48
2019-03-23T13:43:56.073Z,11.51
2019-03-23T13:45:53.938Z,11.52
2019-03-23T13:49:53.935Z,11.53
2019-03-23T13:51:53.933Z,11.54
2019-03-23T13:55:53.932Z,11.56
2019-03-23T13:57:53.940Z,11.57
2019-03-23T14:01:53.946Z,11.59
2019-03-23T14:03:53.935Z,11.60
2019-03-23T14:07:53.946Z,11.62
2019-03-23T14:09:53.947Z,11.62
2019-03-23T14:13:53.968Z,11.65
2019-03-23T14:15:53.938Z,11.66
2019-03-23T14:19:53.961Z,11.69
2019-03-23T14:21:57.683Z,11.69
2019-03-23T14:25:53.962Z,11.71
2019-03-23T14:27:53.967Z,11.72
2019-03-23T14:31:58.707Z,11.74
2019-03-23T14:33:53.969Z,11.75
2019-03-23T14:37:53.989Z,11.77
2019-03-23T14:39:53.985Z,11.78
2019-03-23T14:43:53.987Z,11.80
2019-03-23T14:45:53.982Z,11.81
2019-03-23T14:49:56.367Z,11.83
2019-03-23T14:51:53.998Z,11.84
2019-03-23T14:55:54.010Z,11.84
2019-03-23T14:57:53.982Z,11.85
2019-03-23T15:01:53.992Z,11.88
2019-03-23T15:03:53.988Z,11.86
2019-03-23T15:07:54.031Z,11.88
2019-03-23T15:09:53.992Z,11.89
2019-03-23T15:13:54.004Z,11.91
2019-03-23T15:15:54.015Z,11.90
2019-03-23T15:19:54.031Z,11.92
2019-03-23T15:21:54.043Z,11.92
2019-03-23T15:25:54.017Z,11.92
2019-03-23T15:27:56.383Z,11.92
2019-03-23T15:31:54.012Z,11.94
2019-03-23T15:33:54.026Z,11.94
2019-03-23T15:37:54.005Z,11.94
2019-03-23T15:39:54.038Z,11.95
2019-03-23T15:43:54.024Z,11.96
2019-03-23T15:45:54.035Z,11.96
2019-03-23T15:50:03.356Z,11.96
2019-03-23T15:51:56.771Z,11.97
2019-03-23T15:55:54.031Z,11.96
2019-03-23T15:57:54.039Z,11.97
2019-03-23T16:01:54.050Z,11.97
2019-03-23T16:03:54.038Z,11.97
2019-03-23T16:07:54.050Z,11.97
2019-03-23T16:09:54.042Z,11.97
2019-03-23T16:13:54.054Z,11.97
2019-03-23T16:15:54.072Z,11.96
2019-03-23T16:19:54.069Z,11.97
2019-03-23T16:21:54.066Z,11.97
2019-03-23T16:25:56.467Z,11.95
2019-03-23T16:27:54.057Z,11.95
2019-03-23T16:33:54.078Z,11.96
2019-03-23T16:35:54.081Z,11.97
2019-03-23T16:40:00.408Z,11.95
2019-03-23T16:41:56.447Z,11.95
2019-03-23T16:45:54.065Z,11.95
2019-03-23T16:47:54.086Z,11.96
2019-03-23T16:51:54.077Z,11.94
2019-03-23T16:53:54.101Z,11.94
2019-03-23T16:57:59.000Z,11.94
2019-03-23T16:59:54.103Z,11.93
2019-03-23T17:03:54.093Z,11.91
2019-03-23T17:05:54.097Z,11.92
2019-03-23T17:09:54.106Z,11.91
2019-03-23T17:11:54.104Z,11.91
2019-03-23T17:15:59.071Z,11.90
2019-03-23T17:17:54.128Z,11.91
2019-03-23T17:21:54.101Z,11.88
2019-03-23T17:23:54.111Z,11.87
2019-03-23T17:27:54.135Z,11.87
2019-03-23T17:29:54.135Z,11.85
2019-03-23T17:33:54.125Z,11.84
2019-03-23T17:35:54.122Z,11.84
2019-03-23T17:39:54.147Z,11.82
2019-03-23T17:41:54.121Z,11.82
2019-03-23T17:45:54.118Z,11.79
2019-03-23T17:47:54.142Z,11.78
2019-03-23T17:51:55.574Z,11.77
2019-03-23T17:53:58.539Z,11.76
2019-03-23T17:57:54.170Z,11.75
2019-03-23T17:59:54.153Z,11.74
2019-03-23T18:03:54.150Z,11.73
2019-03-23T18:05:54.152Z,11.72
2019-03-23T18:09:54.175Z,11.70
2019-03-23T18:11:54.159Z,11.69
2019-03-23T18:15:54.172Z,11.67
2019-03-23T18:17:54.180Z,11.67
2019-03-23T18:21:57.923Z,11.65
2019-03-23T18:23:57.131Z,11.63
2019-03-23T18:27:54.162Z,11.62
2019-03-23T18:29:54.173Z,11.60
2019-03-23T18:33:54.200Z,11.60
2019-03-23T18:35:54.184Z,11.58
2019-03-23T18:39:54.183Z,11.55
2019-03-23T18:41:54.189Z,11.55
2019-03-23T18:45:54.207Z,11.52
2019-03-23T18:47:54.195Z,11.52
2019-03-23T18:51:56.438Z,11.49
2019-03-23T18:53:57.873Z,11.47
2019-03-23T18:57:54.197Z,11.46
2019-03-23T18:59:54.181Z,11.46
2019-03-23T19:03:54.215Z,11.43
2019-03-23T19:05:57.828Z,11.43
2019-03-23T19:09:54.220Z,11.40
2019-03-23T19:11:54.230Z,11.38
2019-03-23T19:15:54.216Z,11.37
2019-03-23T19:17:59.227Z,11.36
2019-03-23T19:21:54.214Z,11.33
2019-03-23T19:23:54.232Z,11.33
2019-03-23T19:27:54.223Z,11.32
2019-03-23T19:29:54.240Z,11.30
2019-03-23T19:33:54.225Z,11.27
2019-03-23T19:35:54.239Z,11.27
2019-03-23T19:39:54.246Z,11.24
2019-03-23T19:41:54.274Z,11.25
2019-03-23T19:47:54.259Z,11.20
2019-03-23T19:49:54.274Z,11.20
2019-03-23T19:53:54.261Z,11.19
2019-03-23T19:55:59.271Z,11.18
2019-03-23T19:59:54.264Z,11.15
2019-03-23T20:01:54.290Z,11.14
2019-03-23T20:07:54.242Z,11.10
2019-03-23T20:09:54.272Z,11.09
2019-03-23T20:13:58.949Z,11.07
2019-03-23T20:15:54.289Z,11.06
2019-03-23T20:19:54.284Z,11.05
2019-03-23T20:21:54.290Z,11.04
2019-03-23T20:25:54.293Z,11.01
2019-03-23T20:27:54.280Z,11.00
2019-03-23T20:32:03.229Z,10.97
2019-03-23T20:33:54.293Z,10.97
2019-03-23T20:37:54.286Z,10.95
2019-03-23T20:39:54.306Z,10.93
2019-03-23T20:44:09.098Z,10.92
2019-03-23T20:45:54.281Z,10.91
2019-03-23T20:49:54.334Z,10.89
2019-03-23T20:51:56.708Z,10.87
2019-03-23T20:55:54.294Z,10.86
2019-03-23T20:57:54.308Z,10.85
2019-03-23T21:01:54.381Z,10.84
2019-03-23T21:03:54.296Z,10.82
2019-03-23T21:07:57.992Z,10.81
2019-03-23T21:09:54.342Z,10.79
2019-03-23T21:13:54.300Z,10.77
2019-03-23T21:15:54.310Z,10.75
2019-03-23T21:19:59.266Z,10.73
2019-03-23T21:21:54.323Z,10.73
2019-03-23T21:25:54.323Z,10.71
2019-03-23T21:27:55.169Z,10.70
2019-03-23T21:31:54.329Z,10.59
2019-03-23T21:33:54.326Z,10.55
2019-03-23T21:37:54.341Z,10.59
2019-03-23T21:39:54.347Z,10.57
2019-03-23T21:43:54.350Z,10.54
2019-03-23T21:45:58.802Z,10.54
2019-03-23T21:49:54.344Z,10.53
2019-03-23T21:51:54.350Z,10.51
2019-03-23T21:55:54.363Z,10.50
2019-03-23T21:57:59.294Z,10.52
2019-03-23T22:01:54.347Z,10.47
2019-03-23T22:03:54.348Z,10.47
2019-03-23T22:07:59.449Z,10.46
2019-03-23T22:09:54.395Z,10.45
2019-03-23T22:13:54.403Z,10.42
2019-03-23T22:15:58.947Z,10.40
2019-03-23T22:19:54.408Z,10.40
2019-03-23T22:21:59.083Z,10.39
2019-03-23T22:25:54.415Z,10.37
2019-03-23T22:27:59.011Z,10.37
2019-03-23T22:31:59.437Z,10.34
2019-03-23T22:33:59.455Z,10.36
2019-03-23T22:37:54.455Z,10.32
2019-03-23T22:39:54.428Z,10.33
2019-03-23T22:46:12.177Z,10.30
2019-03-23T22:47:54.440Z,10.30
2019-03-23T22:51:54.446Z,10.26
2019-03-23T22:53:55.367Z,10.24
2019-03-23T22:58:02.737Z,10.23
2019-03-23T22:59:54.465Z,10.23
2019-03-23T23:03:59.404Z,10.22
2019-03-23T23:05:54.457Z,10.19
2019-03-23T23:09:55.337Z,10.17
2019-03-23T23:11:54.453Z,10.15
2019-03-23T23:15:58.940Z,10.13
2019-03-23T23:17:56.382Z,10.13
2019-03-23T23:21:59.238Z,10.11
2019-03-23T23:23:54.469Z,10.11
2019-03-23T23:27:58.879Z,10.07
2019-03-23T23:29:54.487Z,10.04
2019-03-23T23:33:54.494Z,10.04
2019-03-23T23:35:54.509Z,10.03
2019-03-23T23:39:54.552Z,10.00
2019-03-23T23:41:59.070Z,9.99
2019-03-23T23:45:56.733Z,9.99
2019-03-23T23:47:58.994Z,9.98
2019-03-23T23:51:54.486Z,9.95
2019-03-23T23:53:58.942Z,9.95
2019-03-23T23:57:54.499Z,9.92
2019-03-23T23:59:54.491Z,9.92
